Terminal Aerodrome Forecast
Issued by NWS

Home | Current Version | Previous Version | Text Only | Print | Product List | Glossary On
Versions: 1 2 3 4 5 6 7 8 9 10 11 12 13 14 15 16 17
000
FTUS45 KGGW 032322
TAFOLF
TAF
KOLF 032322Z 0400/0424 28011KT P6SM BKN040
     FM040600 28009KT P6SM SCT040
     FM040900 27007KT 1SM BR SCT035
     FM041200 24004KT P6SM BKN035
     FM041600 23005KT P6SM OVC035=

USA.gov is the U.S. government's official web portal to all federal, state and local government web resources and services.